createdAt,value
2018-04-19T00:00:09.592Z,102161.22
2018-04-19T00:02:37.868Z,102160.88
2018-04-19T00:05:07.195Z,102162.61
2018-04-19T00:07:35.471Z,102158.89
2018-04-19T00:10:06.369Z,102159.03
2018-04-19T00:12:34.645Z,102160.09
2018-04-19T00:15:07.705Z,102160.48
2018-04-19T00:17:35.985Z,102155.56
2018-04-19T00:20:07.766Z,102154.44
2018-04-19T00:22:36.219Z,102152.67
2018-04-19T00:25:08.171Z,102153.66
2018-04-19T00:27:36.467Z,102151.41
2018-04-19T00:30:07.009Z,102146.48
2018-04-19T00:32:35.278Z,102151.06
2018-04-19T00:35:07.352Z,102151.63
2018-04-19T00:37:35.626Z,102151.63
2018-04-19T00:40:07.655Z,102150.42
2018-04-19T00:42:36.447Z,102154.20
2018-04-19T00:45:06.385Z,102152.69
2018-04-19T00:47:34.696Z,102148.72
2018-04-19T00:50:07.943Z,102146.13
2018-04-19T00:52:48.190Z,102145.30
2018-04-19T00:55:16.486Z,102143.39
2018-04-19T00:57:44.777Z,102141.97
2018-04-19T01:00:13.407Z,102133.08
2018-04-19T01:02:41.675Z,102141.89
2018-04-19T01:05:09.975Z,102133.94
2018-04-19T01:07:38.264Z,102128.50
2018-04-19T01:10:06.608Z,102132.81
2018-04-19T01:12:34.905Z,102127.11
2018-04-19T01:15:10.014Z,102125.77
2018-04-19T01:17:38.330Z,102117.05
2018-04-19T01:20:06.623Z,102095.96
2018-04-19T01:22:35.238Z,102122.09
2018-04-19T01:25:06.567Z,102113.58
2018-04-19T01:27:34.852Z,102116.17
2018-04-19T01:30:09.887Z,102114.34
2018-04-19T01:32:38.192Z,102119.61
2018-04-19T01:35:07.032Z,102116.33
2018-04-19T01:37:35.667Z,102114.27
2018-04-19T01:40:05.679Z,102114.99
2018-04-19T01:42:34.429Z,102115.77
2018-04-19T01:45:05.542Z,102118.14
2018-04-19T01:47:34.053Z,102125.72
2018-04-19T01:50:09.105Z,102120.37
2018-04-19T01:52:37.376Z,102126.57
2018-04-19T01:55:05.698Z,102124.52
2018-04-19T01:57:34.026Z,102120.77
2018-04-19T02:00:07.338Z,102121.32
2018-04-19T02:02:35.574Z,102127.61
2018-04-19T02:05:05.573Z,102123.80
2018-04-19T02:07:33.855Z,102115.17
2018-04-19T02:10:07.876Z,102117.22
2018-04-19T02:12:36.143Z,102116.14
2018-04-19T02:15:06.395Z,102114.92
2018-04-19T02:17:34.876Z,102120.37
2018-04-19T02:20:06.990Z,102123.17
2018-04-19T02:22:35.281Z,102115.92
2018-04-19T02:25:06.615Z,102121.96
2018-04-19T02:27:35.499Z,102116.31
2018-04-19T02:30:07.155Z,102121.75
2018-04-19T02:32:35.442Z,102123.33
2018-04-19T02:35:06.639Z,102117.00
2018-04-19T02:37:34.911Z,102117.20
2018-04-19T02:40:07.087Z,102113.81
2018-04-19T02:42:35.378Z,102111.89
2018-04-19T02:45:07.558Z,102118.14
2018-04-19T02:47:36.258Z,102115.55
2018-04-19T02:50:06.040Z,102109.03
2018-04-19T02:52:34.330Z,102108.05
2018-04-19T02:55:06.352Z,102105.15
2018-04-19T02:57:34.643Z,102110.48
2018-04-19T03:00:05.944Z,102109.13
2018-04-19T03:02:35.715Z,102116.73
2018-04-19T03:05:06.212Z,102119.20
2018-04-19T03:07:34.500Z,102114.95
2018-04-19T03:10:05.706Z,102116.61
2018-04-19T03:12:34.320Z,102117.83
2018-04-19T03:15:06.400Z,102121.44
2018-04-19T03:17:34.699Z,102117.23
2018-04-19T03:20:05.719Z,102109.27
2018-04-19T03:22:33.999Z,102107.41
2018-04-19T03:25:05.351Z,102096.83
2018-04-19T03:27:33.642Z,102101.23
2018-04-19T03:30:05.541Z,102105.14
2018-04-19T03:32:33.827Z,102098.67
2018-04-19T03:35:05.381Z,102101.64
2018-04-19T03:37:33.619Z,102097.56
2018-04-19T03:40:05.066Z,102096.17
2018-04-19T03:42:33.351Z,102108.45
2018-04-19T03:45:07.886Z,102100.77
2018-04-19T03:47:36.169Z,102101.08
2018-04-19T03:50:05.877Z,102104.09
2018-04-19T03:52:34.746Z,102099.06
2018-04-19T03:55:06.271Z,102101.64
2018-04-19T03:57:34.576Z,102094.84
2018-04-19T04:00:06.023Z,102094.92
2018-04-19T04:02:34.291Z,102091.70
2018-04-19T04:05:06.044Z,102087.58
2018-04-19T04:07:34.301Z,102086.42
2018-04-19T04:10:06.889Z,102088.98
2018-04-19T04:12:35.163Z,102088.28
2018-04-19T04:15:07.011Z,102088.28
2018-04-19T04:17:46.890Z,102084.32
2018-04-19T04:20:27.109Z,102083.91
2018-04-19T04:23:08.120Z,102082.45
2018-04-19T04:25:36.640Z,102085.71
2018-04-19T04:28:05.055Z,102086.70
2018-04-19T04:30:33.352Z,102083.67
2018-04-19T04:33:02.619Z,102082.94
2018-04-19T04:35:30.937Z,102088.98
2018-04-19T04:37:59.338Z,102092.83
2018-04-19T04:40:27.770Z,102086.23
2018-04-19T04:42:56.083Z,102081.65
2018-04-19T04:45:24.370Z,102083.53
2018-04-19T04:47:52.716Z,102085.34
2018-04-19T04:50:21.798Z,102083.92
2018-04-19T04:52:50.539Z,102084.98
2018-04-19T04:55:18.826Z,102089.49
2018-04-19T04:57:47.416Z,102083.45
2018-04-19T05:00:16.698Z,102086.20
2018-04-19T05:02:44.981Z,102086.47
2018-04-19T05:05:13.255Z,102080.09
2018-04-19T05:07:41.590Z,102085.93
2018-04-19T05:10:10.116Z,102083.61
2018-04-19T05:12:38.415Z,102085.10
2018-04-19T05:15:06.706Z,102050.30
2018-04-19T05:17:34.993Z,102078.21
2018-04-19T05:20:06.488Z,102077.75
2018-04-19T05:22:34.745Z,102075.84
2018-04-19T05:25:06.229Z,102078.06
2018-04-19T05:27:34.511Z,102084.14
2018-04-19T05:30:06.417Z,102075.61
2018-04-19T05:32:34.692Z,102073.80
2018-04-19T05:35:06.175Z,102082.31
2018-04-19T05:37:34.960Z,102077.52
2018-04-19T05:40:06.616Z,102083.50
2018-04-19T05:42:35.300Z,102086.01
2018-04-19T05:45:07.103Z,102085.19
2018-04-19T05:47:35.370Z,102086.08
2018-04-19T05:50:07.510Z,102087.62
2018-04-19T05:52:35.787Z,102085.09
2018-04-19T05:55:07.321Z,102073.55
2018-04-19T05:57:35.609Z,102077.55
2018-04-19T06:00:07.140Z,102082.98
2018-04-19T06:02:35.418Z,102083.78
2018-04-19T06:05:07.167Z,102084.22
2018-04-19T06:07:35.595Z,102085.63
2018-04-19T06:10:07.647Z,102088.37
2018-04-19T06:12:36.219Z,102093.95
2018-04-19T06:15:07.159Z,102085.47
2018-04-19T06:17:35.455Z,102085.86
2018-04-19T06:20:07.309Z,102087.39
2018-04-19T06:22:35.599Z,102086.56
2018-04-19T06:25:06.889Z,102084.91
2018-04-19T06:27:35.613Z,102082.34
2018-04-19T06:30:06.943Z,102077.81
2018-04-19T06:32:35.271Z,102077.27
2018-04-19T06:35:06.681Z,102080.36
2018-04-19T06:37:35.098Z,102086.80
2018-04-19T06:40:07.058Z,102073.38
2018-04-19T06:42:35.492Z,102083.71
2018-04-19T06:45:07.385Z,102079.32
2018-04-19T06:47:35.987Z,102084.17
2018-04-19T06:50:07.995Z,102079.20
2018-04-19T06:52:36.308Z,102087.45
2018-04-19T06:55:06.391Z,102080.67
2018-04-19T06:57:34.668Z,102083.45
2018-04-19T07:00:08.031Z,102085.77
2018-04-19T07:02:36.818Z,102081.39
2018-04-19T07:05:07.006Z,102087.36
2018-04-19T07:07:35.588Z,102084.37
2018-04-19T07:10:07.269Z,102088.63
2018-04-19T07:12:35.546Z,102089.44
2018-04-19T07:15:07.573Z,102084.08
2018-04-19T07:17:35.848Z,102093.95
2018-04-19T07:20:07.366Z,102079.56
2018-04-19T07:22:35.913Z,102079.64
2018-04-19T07:25:07.820Z,102079.62
2018-04-19T07:27:36.088Z,102075.98
2018-04-19T07:30:08.118Z,102079.78
2018-04-19T07:32:36.396Z,102073.72
2018-04-19T07:35:06.882Z,102082.45
2018-04-19T07:37:35.134Z,102073.22
2018-04-19T07:40:06.893Z,102065.59
2018-04-19T07:42:35.172Z,102070.79
2018-04-19T07:45:07.434Z,102058.68
2018-04-19T07:47:35.730Z,102068.84
2018-04-19T07:50:07.055Z,102066.26
2018-04-19T07:52:35.536Z,102063.70
2018-04-19T07:55:07.657Z,102067.87
2018-04-19T07:57:36.716Z,102060.55
2018-04-19T08:00:08.136Z,102045.03
2018-04-19T08:02:36.408Z,102060.92
2018-04-19T08:05:06.657Z,102066.05
2018-04-19T08:07:34.920Z,102069.43
2018-04-19T08:10:06.411Z,102064.59
2018-04-19T08:12:34.703Z,102073.49
2018-04-19T08:15:06.262Z,102067.44
2018-04-19T08:17:34.566Z,102061.84
2018-04-19T08:20:10.010Z,102068.09
2018-04-19T08:22:38.315Z,102066.02
2018-04-19T08:25:06.600Z,102067.09
2018-04-19T08:27:35.603Z,102061.95
2018-04-19T08:30:07.721Z,102056.79
2018-04-19T08:32:36.047Z,102062.68
2018-04-19T08:35:08.281Z,102058.88
2018-04-19T08:37:36.562Z,102049.45
2018-04-19T08:40:06.446Z,102062.56
2018-04-19T08:42:34.720Z,102062.95
2018-04-19T08:45:06.402Z,102058.16
2018-04-19T08:47:35.286Z,102058.94
2018-04-19T08:50:06.661Z,102056.25
2018-04-19T08:52:34.950Z,102060.99
2018-04-19T08:55:09.979Z,102053.27
2018-04-19T08:57:38.259Z,102062.14
2018-04-19T09:00:06.543Z,102054.70
2018-04-19T09:02:34.843Z,102053.12
2018-04-19T09:05:06.592Z,102049.50
2018-04-19T09:07:34.862Z,102045.12
2018-04-19T09:10:06.263Z,102047.71
2018-04-19T09:12:34.555Z,102042.73
2018-04-19T09:15:05.767Z,102050.72
2018-04-19T09:17:34.056Z,102047.61
2018-04-19T09:20:05.985Z,102047.28
2018-04-19T09:22:34.238Z,102047.00
2018-04-19T09:25:06.348Z,102047.28
2018-04-19T09:27:34.625Z,102040.37
2018-04-19T09:30:06.951Z,102040.89
2018-04-19T09:32:35.377Z,102043.92
2018-04-19T09:35:07.374Z,102038.84
2018-04-19T09:37:35.671Z,102038.67
2018-04-19T09:40:05.672Z,102030.65
2018-04-19T09:42:33.958Z,102029.07
2018-04-19T09:45:08.978Z,102030.93
2018-04-19T09:47:37.282Z,102032.69
2018-04-19T09:50:05.676Z,102024.37
2018-04-19T09:52:33.967Z,102023.66
2018-04-19T09:55:09.222Z,102028.58
2018-04-19T09:57:37.675Z,102027.30
2018-04-19T10:00:05.975Z,102026.50
2018-04-19T10:02:35.193Z,102030.27
2018-04-19T10:05:06.612Z,102022.11
2018-04-19T10:07:34.979Z,102015.30
2018-04-19T10:10:06.735Z,102013.02
2018-04-19T10:12:35.030Z,102009.67
2018-04-19T10:15:06.641Z,102007.84
2018-04-19T10:17:34.926Z,102003.48
2018-04-19T10:20:06.422Z,102010.26
2018-04-19T10:22:35.077Z,101999.20
2018-04-19T10:25:05.723Z,102001.83
2018-04-19T10:27:34.640Z,101999.00
2018-04-19T10:30:05.990Z,102001.09
2018-04-19T10:32:38.029Z,101996.22
2018-04-19T10:35:06.322Z,101985.69
2018-04-19T10:37:34.727Z,101981.63
2018-04-19T10:40:06.445Z,101976.89
2018-04-19T10:42:34.719Z,101979.84
2018-04-19T10:45:06.084Z,101978.86
2018-04-19T10:47:34.505Z,101975.61
2018-04-19T10:50:06.414Z,101971.77
2018-04-19T10:52:34.695Z,101974.67
2018-04-19T10:55:06.327Z,101963.01
2018-04-19T10:57:34.617Z,101962.07
2018-04-19T11:00:05.923Z,101958.47
2018-04-19T11:02:34.479Z,101964.48
2018-04-19T11:05:08.525Z,101959.16
2018-04-19T11:07:36.796Z,101954.98
2018-04-19T11:10:06.323Z,101953.06
2018-04-19T11:12:34.621Z,101955.00
2018-04-19T11:15:05.928Z,101943.20
2018-04-19T11:17:34.279Z,101946.64
2018-04-19T11:20:09.580Z,101949.22
2018-04-19T11:22:38.089Z,101943.17
2018-04-19T11:25:06.662Z,101944.33
2018-04-19T11:27:34.951Z,101944.29
2018-04-19T11:30:05.901Z,101938.25
2018-04-19T11:32:34.475Z,101939.28
2018-04-19T11:35:09.048Z,101926.94
2018-04-19T11:37:37.511Z,101935.94
2018-04-19T11:40:05.963Z,101924.63
2018-04-19T11:42:34.371Z,101927.60
2018-04-19T11:45:09.803Z,101924.67
2018-04-19T11:47:38.078Z,101932.56
2018-04-19T11:50:06.620Z,101921.16
2018-04-19T11:52:34.895Z,101920.03
2018-04-19T11:55:07.003Z,101918.95
2018-04-19T11:57:35.755Z,101915.70
2018-04-19T12:00:06.103Z,101912.52
2018-04-19T12:02:34.361Z,101912.88
2018-04-19T12:05:09.269Z,101900.34
2018-04-19T12:07:37.881Z,101898.64
2018-04-19T12:10:06.105Z,101914.28
2018-04-19T12:12:34.395Z,101907.55
2018-04-19T12:15:07.342Z,101905.66
2018-04-19T12:17:35.823Z,101903.73
2018-04-19T12:20:07.879Z,101912.94
2018-04-19T12:22:36.166Z,101906.77
2018-04-19T12:25:06.262Z,101898.63
2018-04-19T12:27:35.097Z,101902.66
2018-04-19T12:30:06.880Z,101899.34
2018-04-19T12:32:35.179Z,101900.48
2018-04-19T12:35:07.275Z,101902.75
2018-04-19T12:37:35.622Z,101904.47
2018-04-19T12:40:07.086Z,101902.86
2018-04-19T12:42:35.379Z,101895.55
2018-04-19T12:45:06.063Z,101892.83
2018-04-19T12:47:34.354Z,101883.97
2018-04-19T12:50:07.718Z,101881.88
2018-04-19T12:52:36.031Z,101878.55
2018-04-19T12:55:09.187Z,101874.85
2018-04-19T12:57:38.000Z,101874.95
2018-04-19T13:00:06.274Z,101849.95
2018-04-19T13:02:35.925Z,101871.73
2018-04-19T13:05:07.949Z,101860.95
2018-04-19T13:07:37.501Z,101866.02
2018-04-19T13:10:06.318Z,101863.75
2018-04-19T13:12:34.655Z,101855.48
2018-04-19T13:15:08.712Z,101855.00
2018-04-19T13:17:36.984Z,101861.63
2018-04-19T13:20:06.338Z,101855.50
2018-04-19T13:22:34.888Z,101858.41
2018-04-19T13:25:06.893Z,101847.78
2018-04-19T13:27:35.160Z,101845.91
2018-04-19T13:30:06.399Z,101831.11
2018-04-19T13:32:34.696Z,101827.89
2018-04-19T13:35:06.971Z,101831.38
2018-04-19T13:37:35.348Z,101825.77
2018-04-19T13:40:07.395Z,101816.48
2018-04-19T13:42:35.683Z,101817.29
2018-04-19T13:45:07.985Z,101813.36
2018-04-19T13:47:36.340Z,101818.52
2018-04-19T13:50:06.231Z,101821.27
2018-04-19T13:52:35.053Z,101806.37
2018-04-19T13:55:06.518Z,101802.95
2018-04-19T13:57:35.733Z,101807.94
2018-04-19T14:00:07.443Z,101800.33
2018-04-19T14:02:35.766Z,101797.20
2018-04-19T14:05:07.271Z,101797.84
2018-04-19T14:07:35.574Z,101790.72
2018-04-19T14:10:07.948Z,101781.82
2018-04-19T14:12:36.266Z,101782.07
2018-04-19T14:15:06.357Z,101772.94
2018-04-19T14:17:34.619Z,101774.92
2018-04-19T14:20:06.098Z,101768.79
2018-04-19T14:22:34.398Z,101767.27
2018-04-19T14:25:06.407Z,101769.13
2018-04-19T14:27:34.721Z,101769.84
2018-04-19T14:30:06.324Z,101764.05
2018-04-19T14:32:34.579Z,101759.52
2018-04-19T14:35:09.691Z,101758.77
2018-04-19T14:37:37.999Z,101759.70
2018-04-19T14:40:06.352Z,101748.89
2018-04-19T14:42:34.653Z,101747.92
2018-04-19T14:45:06.766Z,101751.69
2018-04-19T14:47:35.027Z,101749.27
2018-04-19T14:50:07.112Z,101751.64
2018-04-19T14:52:35.399Z,101747.28
2018-04-19T14:55:07.242Z,101748.81
2018-04-19T14:57:35.518Z,101740.18
2018-04-19T15:00:07.619Z,101744.70
2018-04-19T15:02:36.050Z,101736.14
2018-04-19T15:05:06.381Z,101735.05
2018-04-19T15:07:34.655Z,101726.95
2018-04-19T15:10:07.941Z,101734.09
2018-04-19T15:12:36.224Z,101723.67
2018-04-19T15:15:07.971Z,101715.95
2018-04-19T15:17:36.289Z,101724.14
2018-04-19T15:20:07.557Z,101720.50
2018-04-19T15:22:35.844Z,101717.38
2018-04-19T15:25:07.964Z,101716.18
2018-04-19T15:27:36.260Z,101716.07
2018-04-19T15:30:07.886Z,101721.48
2018-04-19T15:32:36.244Z,101715.73
2018-04-19T15:35:08.250Z,101711.81
2018-04-19T15:37:37.223Z,101714.75
2018-04-19T15:40:06.655Z,101707.94
2018-04-19T15:42:34.939Z,101706.79
2018-04-19T15:45:10.019Z,101701.45
2018-04-19T15:47:38.302Z,101710.91
2018-04-19T15:50:07.088Z,101704.09
2018-04-19T15:52:36.094Z,101703.28
2018-04-19T15:55:07.383Z,101704.95
2018-04-19T15:57:35.634Z,101705.52
2018-04-19T16:00:07.810Z,101694.75
2018-04-19T16:02:36.130Z,101692.95
2018-04-19T16:05:08.183Z,101692.19
2018-04-19T16:07:36.655Z,101697.52
2018-04-19T16:10:05.749Z,101697.61
2018-04-19T16:12:34.059Z,101689.02
2018-04-19T16:15:06.963Z,101688.30
2018-04-19T16:17:35.270Z,101695.41
2018-04-19T16:20:06.759Z,101688.21
2018-04-19T16:22:35.071Z,101691.50
2018-04-19T16:25:06.852Z,101687.41
2018-04-19T16:27:35.169Z,101681.16
2018-04-19T16:30:07.277Z,101682.52
2018-04-19T16:32:35.881Z,101678.75
2018-04-19T16:35:06.207Z,101675.38
2018-04-19T16:37:34.833Z,101668.50
2018-04-19T16:40:06.402Z,101673.48
2018-04-19T16:42:34.702Z,101667.23
2018-04-19T16:45:06.632Z,101672.02
2018-04-19T16:47:34.946Z,101676.23
2018-04-19T16:50:06.470Z,101667.16
2018-04-19T16:52:34.903Z,101672.02
2018-04-19T16:55:05.672Z,101678.32
2018-04-19T16:57:33.961Z,101663.13
2018-04-19T17:00:05.587Z,101674.58
2018-04-19T17:02:33.870Z,101666.95
2018-04-19T17:05:07.765Z,101665.47
2018-04-19T17:07:36.069Z,101665.28
2018-04-19T17:10:05.682Z,101662.26
2018-04-19T17:12:33.983Z,101658.57
2018-04-19T17:15:09.099Z,101664.52
2018-04-19T17:17:37.403Z,101664.69
2018-04-19T17:20:05.767Z,101657.58
2018-04-19T17:22:34.064Z,101663.86
2018-04-19T17:25:06.995Z,101659.42
2018-04-19T17:27:35.284Z,101660.99
2018-04-19T17:30:07.234Z,101664.69
2018-04-19T17:32:35.518Z,101657.92
2018-04-19T17:35:07.335Z,101653.19
2018-04-19T17:37:36.438Z,101655.34
2018-04-19T17:40:06.348Z,101655.37
2018-04-19T17:42:34.622Z,101659.77
2018-04-19T17:45:06.384Z,101657.93
2018-04-19T17:47:34.692Z,101660.23
2018-04-19T17:50:06.807Z,101668.58
2018-04-19T17:52:35.824Z,101661.52
2018-04-19T17:55:05.759Z,101664.27
2018-04-19T17:57:34.307Z,101666.13
2018-04-19T18:00:06.428Z,101666.73
2018-04-19T18:02:34.711Z,101668.55
2018-04-19T18:05:09.009Z,101661.73
2018-04-19T18:07:37.339Z,101674.08
2018-04-19T18:10:06.419Z,101674.52
2018-04-19T18:12:34.699Z,101677.41
2018-04-19T18:15:05.956Z,101677.74
2018-04-19T18:17:34.255Z,101676.79
2018-04-19T18:20:05.736Z,101675.87
2018-04-19T18:22:33.995Z,101678.36
2018-04-19T18:25:05.299Z,101683.99
2018-04-19T18:27:33.631Z,101682.19
2018-04-19T18:30:05.467Z,101681.34
2018-04-19T18:32:33.964Z,101682.33
2018-04-19T18:35:08.940Z,101684.84
2018-04-19T18:37:37.217Z,101686.00
2018-04-19T18:40:06.535Z,101686.27
2018-04-19T18:42:35.256Z,101689.38
2018-04-19T18:45:07.070Z,101694.91
2018-04-19T18:47:35.667Z,101708.21
2018-04-19T18:50:06.917Z,101706.46
2018-04-19T18:52:35.256Z,101707.52
2018-04-19T18:55:06.697Z,101704.02
2018-04-19T18:57:34.984Z,101703.88
2018-04-19T19:00:07.030Z,101711.28
2018-04-19T19:02:35.351Z,101710.49
2018-04-19T19:05:07.051Z,101710.61
2018-04-19T19:07:35.555Z,101712.37
2018-04-19T19:10:06.989Z,101712.30
2018-04-19T19:12:35.272Z,101710.05
2018-04-19T19:18:18.891Z,101710.08
2018-04-19T19:20:47.451Z,101718.98
2018-04-19T19:23:15.743Z,101720.72
2018-04-19T19:25:44.054Z,101725.77
2018-04-19T19:28:12.329Z,101724.56
2018-04-19T19:30:41.089Z,101725.14
2018-04-19T19:33:09.377Z,101729.74
2018-04-19T19:35:37.649Z,101735.52
2018-04-19T19:38:06.246Z,101730.40
2018-04-19T19:40:34.531Z,101735.48
2018-04-19T19:43:02.812Z,101739.16
2018-04-19T19:45:31.111Z,101737.20
2018-04-19T19:47:59.575Z,101741.49
2018-04-19T19:50:27.862Z,101740.04
2018-04-19T19:52:57.395Z,101742.77
2018-04-19T19:55:25.995Z,101740.45
2018-04-19T19:57:54.222Z,101736.86
2018-04-19T20:00:22.627Z,101730.40
2018-04-19T20:02:50.894Z,101738.36
2018-04-19T20:05:19.393Z,101732.16
2018-04-19T20:07:47.659Z,101735.42
2018-04-19T20:10:16.151Z,101740.75
2018-04-19T20:12:44.452Z,101735.75
2018-04-19T20:15:12.900Z,101736.20
2018-04-19T20:17:41.176Z,101734.77
2018-04-19T20:20:09.456Z,101740.91
2018-04-19T20:22:37.751Z,101741.98
2018-04-19T20:25:06.420Z,101733.64
2018-04-19T20:27:34.722Z,101733.49
2018-04-19T20:30:06.739Z,101729.66
2018-04-19T20:32:35.140Z,101733.39
2018-04-19T20:35:07.180Z,101734.48
2018-04-19T20:37:35.683Z,101734.02
2018-04-19T20:40:07.692Z,101729.94
2018-04-19T20:42:35.987Z,101731.94
2018-04-19T20:45:08.131Z,101740.56
2018-04-19T20:47:36.636Z,101732.91
2018-04-19T20:50:06.592Z,101739.38
2018-04-19T20:52:34.896Z,101738.66
2018-04-19T20:55:07.046Z,101743.53
2018-04-19T20:57:35.322Z,101749.87
2018-04-19T21:00:07.344Z,101743.86
2018-04-19T21:02:36.896Z,101738.36
2018-04-19T21:05:06.614Z,101743.44
2018-04-19T21:07:34.926Z,101741.18
2018-04-19T21:10:06.931Z,101736.99
2018-04-19T21:12:35.423Z,101744.12
2018-04-19T21:15:07.384Z,101740.88
2018-04-19T21:17:35.688Z,101743.89
2018-04-19T21:20:07.752Z,101735.82
2018-04-19T21:22:36.107Z,101734.91
2018-04-19T21:25:08.131Z,101734.91
2018-04-19T21:27:36.406Z,101734.05
2018-04-19T21:30:06.254Z,101733.94
2018-04-19T21:32:34.730Z,101725.68
2018-04-19T21:35:06.085Z,101726.23
2018-04-19T21:37:34.361Z,101729.25
2018-04-19T21:40:05.671Z,101720.39
2018-04-19T21:42:33.954Z,101722.81
2018-04-19T21:45:08.751Z,101720.75
2018-04-19T21:47:37.090Z,101717.41
2018-04-19T21:50:07.001Z,101717.23
2018-04-19T21:52:35.300Z,101719.20
2018-04-19T21:55:07.325Z,101723.19
2018-04-19T21:57:35.619Z,101722.87
2018-04-19T22:00:07.359Z,101719.64
2018-04-19T22:02:35.784Z,101729.31
2018-04-19T22:05:07.808Z,101729.05
2018-04-19T22:07:36.180Z,101735.70
2018-04-19T22:10:08.098Z,101739.11
2018-04-19T22:12:36.396Z,101742.72
2018-04-19T22:15:06.396Z,101737.86
2018-04-19T22:17:34.711Z,101741.89
2018-04-19T22:20:09.952Z,101739.05
2018-04-19T22:22:38.267Z,101742.83
2018-04-19T22:25:07.066Z,101729.81
2018-04-19T22:27:35.343Z,101740.74
2018-04-19T22:30:06.928Z,101733.95
2018-04-19T22:32:35.223Z,101736.61
2018-04-19T22:35:06.460Z,101728.90
2018-04-19T22:37:35.015Z,101730.40
2018-04-19T22:40:09.245Z,101736.03
2018-04-19T22:42:37.513Z,101732.68
2018-04-19T22:45:06.716Z,101727.97
2018-04-19T22:47:34.935Z,101727.30
2018-04-19T22:50:06.521Z,101724.27
2018-04-19T22:52:35.489Z,101720.33
2018-04-19T22:55:07.491Z,101722.16
2018-04-19T22:57:36.129Z,101719.32
2018-04-19T23:00:08.174Z,101725.20
2018-04-19T23:02:36.731Z,101722.24
2018-04-19T23:05:08.297Z,101722.17
2018-04-19T23:07:36.587Z,101716.14
2018-04-19T23:10:06.883Z,101718.83
2018-04-19T23:12:35.177Z,101712.02
2018-04-19T23:15:07.046Z,101709.25
2018-04-19T23:17:35.640Z,101711.86
2018-04-19T23:20:07.199Z,101709.58
2018-04-19T23:22:35.517Z,101710.09
2018-04-19T23:25:05.773Z,101707.48
2018-04-19T23:27:34.045Z,101705.03
2018-04-19T23:30:05.451Z,101704.72
2018-04-19T23:32:33.744Z,101707.55
2018-04-19T23:35:07.576Z,101712.78
2018-04-19T23:37:35.940Z,101712.69
2018-04-19T23:40:07.495Z,101710.50
2018-04-19T23:42:35.791Z,101709.92
2018-04-19T23:45:05.831Z,101711.75
2018-04-19T23:47:34.100Z,101707.81
2018-04-19T23:50:05.494Z,101709.08
2018-04-19T23:52:33.971Z,101710.75
2018-04-19T23:55:09.036Z,101715.44
2018-04-19T23:57:37.331Z,101706.47
